Station: LEIGH CREEK

  Atmospheric Gas Attenuation - ITU Rec 676-11   --------------- db/100km ---------------
Date Time Temp RH % AH g/m3 Dew Point Wind Direction Speed kph Gust kph Barometer mB Rainfall Since 9am 24GHz 47GHz 76GHz 122GHz 134GHz 241GHz
21 18:30 20.1 22 3.82 -2.3 26 33 1010.7 0 9.3 17.5 20.7 53.4 37.7 126.1
21 18:20 20.2 22 3.85 -2.2 22 28 1010.9 0 9.3 17.6 20.7 53.6 38.0 127.1
21 18:10 20.3 21 3.69 -2.7 24 28 1010.7 0 9.0 17.4 20.2 52.2 36.3 121.3
21 18:00 20.5 21 3.74 -2.5 22 33 1010.1 0 9.1 17.4 20.3 52.5 36.7 122.7
21 17:50 20.8 20 3.62 -3 26 30 1010.4 0 8.8 17.2 19.9 51.3 35.4 118.1
21 17:40 21.1 20 3.68 -2.7 26 32 1010.3 0 9.0 17.2 20.0 51.6 35.9 119.7
21 17:30 21.2 19 3.52 -3.3 26 39 1009.7 0 8.6 17.0 19.5 50.3 34.2 114.0
21 17:20 21.3 19 3.54 -3.2 28 32 1010.1 0 8.7 17.0 19.5 50.4 34.4 114.6
21 17:10 21.3 18 3.35 -4 30 35 1010 0 8.3 16.7 19.0 48.9 32.5 108.1
21 17:00 21.7 18 3.43 -3.6 28 46 1009.4 0 8.4 16.8 19.1 49.2 33.1 110.2
21 16:50 21.8 18 3.45 -3.5 26 32 1009.8 0 8.5 16.8 19.1 49.4 33.3 110.8
21 16:40 21.8 17 3.26 -4.3 30 35 1009.7 0 8.1 16.5 18.6 47.9 31.5 104.4
21 16:30 21.9 17 3.28 -4.2 30 43 1009.1 0 8.1 16.5 18.6 47.9 31.6 104.8
21 16:20 22.3 18 3.55 -3.1 28 30 1009.5 0 8.7 16.8 19.3 49.8 34.1 113.5
21 16:10 22.1 18 3.51 -3.3 30 33 1009.5 0 8.6 16.8 19.2 49.6 33.8 112.4
21 16:00 22.6 17 3.41 -3.7 26 39 1008.9 0 8.4 16.6 18.8 48.5 32.6 108.3
21 15:50 22 18 3.49 -3.4 26 32 1009.5 0 8.5 16.8 19.2 49.5 33.6 111.9
21 15:40 22.3 18 3.55 -3.1 20 24 1009.4 0 8.7 16.8 19.3 49.8 34.1 113.5
21 15:30 22.9 17 3.47 -3.4 32 44 1009 0 8.5 16.6 18.9 48.8 33.0 110.0
21 15:20 22.4 18 3.57 -3.1 24 28 1009.6 0 8.7 16.8 19.4 49.9 34.2 114.1
21 15:10 22.8 16 3.25 -4.3 24 32 1009.8 0 8.0 16.4 18.4 47.2 31.0 102.8
21 15:00 22.4 18 3.57 -3.1 24 46 1009.3 0 8.7 16.8 19.3 49.9 34.2 114.1
21 14:50 21.9 18 3.47 -3.5 26 32 1010 0 8.5 16.8 19.2 49.5 33.5 111.4
21 14:40 21.9 19 3.67 -2.7 22 26 1010.1 0 8.9 17.0 19.8 51.0 35.4 118.2
21 14:30 21.5 17 3.21 -4.5 28 37 1009.7 0 8.0 16.5 18.5 47.7 31.1 103.0
21 14:20 22 18 3.49 -3.4 33 39 1010.3 0 8.5 16.8 19.2 49.6 33.6 112.0
21 14:10 21.9 17 3.28 -4.2 26 33 1010.4 0 8.1 16.6 18.6 48.0 31.7 105.0
21 14:00 22.1 17 3.32 -4.1 26 44 1010 0 8.2 16.6 18.7 48.2 31.9 106.0
21 13:50 21.5 16 3.02 -5.3 28 33 1010.6 0 7.6 16.3 18.0 46.2 29.3 96.7
21 13:40 21.5 17 3.21 -4.5 17 22 1010.7 0 8.0 16.6 18.5 47.7 31.1 103.1
21 13:30 20.8 18 3.26 -4.4 20 32 1010.3 0 8.1 16.7 18.8 48.5 31.9 105.6
21 13:20 21.3 18 3.35 -4 30 35 1011 0 8.3 16.8 19.0 48.9 32.6 108.2
21 13:10 21 17 3.11 -5 24 32 1011.1 0 7.8 16.5 18.4 47.2 30.4 100.4
21 13:00 21.1 19 3.5 -3.4 28 37 1010.8 0 8.6 17.0 19.5 50.2 34.1 113.6
21 12:50 21.1 19 3.5 -3.4 28 35 1011.3 0 8.6 17.0 19.5 50.3 34.1 113.6
21 12:40 20.8 19 3.44 -3.6 17 24 1011.4 0 8.5 17.0 19.4 50.0 33.7 111.9
21 12:30 21.3 19 3.54 -3.2 22 33 1011.1 0 8.7 17.0 19.6 50.4 34.4 114.7
21 12:20 20.3 18 3.17 -4.8 24 32 1011.6 0 7.9 16.7 18.7 48.1 31.2 103.3
21 12:10 21.1 18 3.32 -4.1 19 20 1011.7 0 8.2 16.8 19.0 48.9 32.4 107.5
21 12:00 20.4 18 3.18 -4.7 24 35 1011.3 0 7.9 16.7 18.7 48.1 31.3 103.5
21 11:50 20.2 18 3.15 -4.8 30 37 1011.7 0 7.9 16.7 18.7 48.1 31.1 102.7
21 11:40 20.3 18 3.17 -4.8 24 30 1011.9 0 7.9 16.8 18.7 48.2 31.2 103.3
21 11:30 20.2 19 3.32 -4.1 20 35 1011.6 0 8.2 16.9 19.2 49.4 32.7 108.6
21 11:20 19.7 19 3.23 -4.5 20 26 1012 0 8.1 16.9 19.0 49.0 32.1 106.1
21 11:10 19.7 18 3.06 -5.3 17 19 1012 0 7.7 16.7 18.5 47.6 30.4 100.3
21 11:00 19.3 17 2.82 -6.3 22 35 1011.7 0 7.2 16.5 17.9 46.0 28.2 92.4
21 10:50 19.5 17 2.85 -6.2 22 24 1012.1 0 7.3 16.5 18.0 46.1 28.4 93.3
21 10:40 19.4 17 2.84 -6.2 30 33 1012.2 0 7.3 16.5 18.0 46.1 28.4 93.0
21 10:30 19.7 17 2.89 -6 28 37 1011.9 0 7.4 16.5 18.0 46.3 28.7 94.4
21 10:20 19.4 17 2.84 -6.2 28 33 1012.3 0 7.3 16.5 18.0 46.1 28.4 93.1
21 10:10 18.7 20 3.2 -4.7 24 30 1012.4 0 8.0 17.1 19.2 49.4 32.2 106.4
21 10:00 19 19 3.1 -5.1 28 41 1012 0 7.8 16.9 18.8 48.4 31.0 102.5
21 09:50 18.8 18 2.9 -6 30 33 1012.4 0 7.4 16.7 18.3 46.9 29.2 95.8
21 09:40 18.4 20 3.15 -4.9 28 35 1012.5 0 7.9 17.1 19.1 49.1 31.8 105.0
21 09:30 18.5 19 3.01 -5.5 26 37 1012 0 7.6 16.9 18.6 47.9 30.3 99.9
21 09:20 18.5 19 3.01 -5.5 32 35 1012.4 0 7.6 16.9 18.7 48.0 30.3 100.0
21 09:10 18.1 20 3.09 -5.2 30 33 1012.4 0 7.8 17.1 19.0 48.8 31.3 103.3
21 09:00 18.2 20 3.11 -5.1 30 43 1012 0 7.9 17.1 19.0 48.9 31.4 103.8
21 08:50 18 20 3.07 -5.3 26 33 1012.2 0 7.8 17.0 18.9 48.7 31.1 102.6
21 08:40 17.8 22 3.34 -4.2 22 33 1012.3 0 8.3 17.4 19.8 51.0 33.9 112.5
21 08:30 16.7 45 6.39 4.7 13 20 1011.8 0 14.8 21.7 30.2 78.7 67.8 231.6
21 08:20 16.1 47 6.44 4.8 13 17 1012.2 0 14.9 21.9 30.6 79.8 68.9 235.4
21 08:10 15.9 46 6.23 4.3 15 20 1012.1 0 14.5 21.7 29.9 78.0 66.6 227.3
21 08:00 15.5 48 6.34 4.6 15 19 1011.6 0 14.7 21.9 30.4 79.4 68.2 232.9
21 07:50 15.1 53 6.84 5.6 15 17 1011.9 0 15.8 22.8 32.4 84.7 74.6 255.2
21 07:40 14.5 55 6.84 5.6 9 11 1011.9 0 15.8 22.9 32.6 85.3 75.1 257.1
21 07:30 13.6 61 7.18 6.2 11 15 1011.3 0 16.6 23.6 34.3 89.7 80.2 274.7
21 07:20 12.9 65 7.33 6.5 11 13 1011.7 0 16.9 24.1 35.1 92.0 82.9 283.9
21 07:10 12.8 65 7.28 6.4 11 11 1011.5 0 16.8 24.0 35.0 91.6 82.3 282.0
21 07:00 12.8 66 7.39 6.6 13 15 1011 0 17.1 24.2 35.4 92.7 83.7 286.8
21 06:50 12.7 67 7.46 6.7 15 15 1011.3 0 17.2 24.3 35.7 93.6 84.7 290.4
21 06:40 12.7 67 7.46 6.7 15 15 1011.1 0 17.2 24.3 35.7 93.6 84.7 290.3
21 06:30 12.8 67 7.51 6.8 13 15 1010.6 0 17.3 24.3 35.8 93.9 85.2 292.1
21 06:20 13.2 65 7.46 6.8 13 15 1010.9 0 17.2 24.2 35.5 93.0 84.1 288.5
21 06:10 13.3 64 7.39 6.6 11 13 1010.8 0 17.0 24.0 35.2 92.1 83.1 285.0
21 06:00 13.6 62 7.3 6.5 11 15 1010.1 0 16.8 23.8 34.7 90.8 81.6 279.7
21 05:50 13.8 62 7.39 6.7 11 13 1010.6 0 17.0 23.9 34.9 91.5 82.6 283.1
21 05:40 13.9 62 7.43 6.7 15 17 1010.5 0 17.1 23.9 35.0 91.8 83.0 284.5
21 05:30 14.1 62 7.52 6.9 22 28 1009.8 0 17.3 24.0 35.3 92.4 83.8 287.6
21 05:20 14.2 61 7.45 6.8 28 32 1010 0 17.1 23.8 35.0 91.6 82.9 284.2
21 05:10 14.2 63 7.69 7.3 30 33 1009.8 0 17.6 24.2 35.9 94.0 85.9 294.8
21 04:50 14.3 63 7.74 7.4 28 33 1009.4 0 17.7 24.2 36.0 94.4 86.4 296.5
21 04:40 14.3 63 7.74 7.4 20 24 1009.4 0 17.7 24.2 36.0 94.4 86.4 296.5
21 04:30 14.3 63 7.74 7.4 26 33 1008.8 0 17.7 24.2 36.0 94.3 86.3 296.4
21 04:20 14.4 62 7.66 7.2 26 30 1009.1 0 17.6 24.1 35.6 93.4 85.2 292.5
21 04:10 14.4 60 7.42 6.7 24 30 1009 0 17.0 23.7 34.7 91.0 82.2 281.9
21 04:00 14.5 59 7.34 6.6 28 37 1008.4 0 16.9 23.5 34.4 90.0 81.1 278.0
21 03:50 14.7 59 7.43 6.8 24 28 1009.1 0 17.1 23.7 34.6 90.8 82.0 281.3
21 03:40 14.8 59 7.47 6.9 22 28 1008.8 0 17.1 23.7 34.7 91.0 82.4 282.7
21 03:30 14.9 59 7.52 7 30 41 1008.1 0 17.2 23.7 34.9 91.3 82.9 284.3
21 03:20 15 59 7.57 7.1 28 32 1008.7 0 17.3 23.8 35.0 91.8 83.4 286.3
21 03:10 15.2 59 7.66 7.2 28 33 1008.8 0 17.5 23.9 35.3 92.5 84.4 289.5
21 03:00 15.3 60 7.84 7.6 39 54 1007.9 0 17.9 24.1 35.9 94.1 86.4 296.8
21 02:50 15.4 60 7.88 7.7 41 48 1007.8 0 18.0 24.1 36.0 94.4 86.8 298.2
21 02:40 15.5 62 8.2 8.3 37 43 1008 0 18.7 24.6 37.2 97.5 90.7 312.0
21 02:30 15.5 63 8.33 8.5 37 48 1007.9 0 18.9 24.8 37.7 98.9 92.4 317.7
21 02:20 15.8 65 8.75 9.2 37 44 1009 0 19.8 25.4 39.2 103.0 97.5 335.6
21 02:10 16 66 8.99 9.7 33 39 1008.9 0 20.3 25.7 40.0 105.2 100.3 345.6
21 02:00 16.5 64 8.99 9.7 28 35 1008.3 0 20.3 25.6 39.8 104.5 99.6 343.2
21 01:50 16.6 64 9.04 9.8 22 30 1008.9 0 20.4 25.6 39.9 104.9 100.2 345.2

Last Refresh: 21-Sep-2020 18:47:45

Most of the information presented on this site is sourced from the Bureau of Meteorology.  Copyright in all material sourced from the Bureau of Meteorology resides with the Commonwealth of Australia.